sensor_id;sensor_type;location;lat;lon;timestamp;P1;durP1;ratioP1;P2;durP2;ratioP2
36593;SDS011;22603;47.900;8.146;2023-02-12T00:01:42;7.60;;;2.57;;
36593;SDS011;22603;47.900;8.146;2023-02-12T00:04:29;5.17;;;1.93;;
36593;SDS011;22603;47.900;8.146;2023-02-12T00:07:15;5.97;;;2.40;;
36593;SDS011;22603;47.900;8.146;2023-02-12T00:10:03;5.97;;;2.20;;
36593;SDS011;22603;47.900;8.146;2023-02-12T00:12:52;5.20;;;1.87;;
36593;SDS011;22603;47.900;8.146;2023-02-12T00:15:41;6.27;;;1.93;;
36593;SDS011;22603;47.900;8.146;2023-02-12T00:18:28;7.37;;;2.27;;
36593;SDS011;22603;47.900;8.146;2023-02-12T00:21:15;5.70;;;2.07;;
36593;SDS011;22603;47.900;8.146;2023-02-12T00:24:02;4.43;;;1.63;;
36593;SDS011;22603;47.900;8.146;2023-02-12T00:26:49;5.07;;;2.43;;
36593;SDS011;22603;47.900;8.146;2023-02-12T00:29:36;5.20;;;2.17;;
36593;SDS011;22603;47.900;8.146;2023-02-12T00:32:25;6.20;;;1.93;;
36593;SDS011;22603;47.900;8.146;2023-02-12T00:35:11;6.03;;;1.97;;
36593;SDS011;22603;47.900;8.146;2023-02-12T00:37:59;4.90;;;1.90;;
36593;SDS011;22603;47.900;8.146;2023-02-12T00:40:45;5.40;;;2.17;;
36593;SDS011;22603;47.900;8.146;2023-02-12T00:43:32;4.53;;;1.83;;
36593;SDS011;22603;47.900;8.146;2023-02-12T00:46:19;7.93;;;2.00;;
36593;SDS011;22603;47.900;8.146;2023-02-12T00:49:08;6.37;;;2.27;;
36593;SDS011;22603;47.900;8.146;2023-02-12T00:51:55;5.77;;;1.80;;
36593;SDS011;22603;47.900;8.146;2023-02-12T00:54:41;8.70;;;2.17;;
36593;SDS011;22603;47.900;8.146;2023-02-12T00:57:28;3.37;;;1.73;;
36593;SDS011;22603;47.900;8.146;2023-02-12T01:00:17;5.90;;;1.87;;
36593;SDS011;22603;47.900;8.146;2023-02-12T01:03:04;6.43;;;2.90;;
36593;SDS011;22603;47.900;8.146;2023-02-12T01:08:59;7.43;;;2.53;;
36593;SDS011;22603;47.900;8.146;2023-02-12T01:11:46;4.93;;;1.90;;
36593;SDS011;22603;47.900;8.146;2023-02-12T01:14:33;6.03;;;2.77;;
36593;SDS011;22603;47.900;8.146;2023-02-12T01:17:21;6.43;;;2.30;;
36593;SDS011;22603;47.900;8.146;2023-02-12T01:20:08;5.03;;;2.07;;
36593;SDS011;22603;47.900;8.146;2023-02-12T01:22:58;10.47;;;2.67;;
36593;SDS011;22603;47.900;8.146;2023-02-12T01:25:46;9.90;;;2.37;;
36593;SDS011;22603;47.900;8.146;2023-02-12T01:28:33;11.77;;;2.83;;
36593;SDS011;22603;47.900;8.146;2023-02-12T01:31:21;4.83;;;1.47;;
36593;SDS011;22603;47.900;8.146;2023-02-12T01:34:10;17.60;;;2.50;;
36593;SDS011;22603;47.900;8.146;2023-02-12T01:36:57;4.80;;;1.80;;
36593;SDS011;22603;47.900;8.146;2023-02-12T01:39:44;8.20;;;2.50;;
36593;SDS011;22603;47.900;8.146;2023-02-12T01:42:33;6.20;;;1.87;;
36593;SDS011;22603;47.900;8.146;2023-02-12T01:48:42;6.47;;;2.33;;
36593;SDS011;22603;47.900;8.146;2023-02-12T01:51:31;6.20;;;2.00;;
36593;SDS011;22603;47.900;8.146;2023-02-12T01:54:20;6.70;;;2.13;;
36593;SDS011;22603;47.900;8.146;2023-02-12T01:57:10;4.13;;;1.73;;
36593;SDS011;22603;47.900;8.146;2023-02-12T02:00:00;5.37;;;1.97;;
36593;SDS011;22603;47.900;8.146;2023-02-12T02:02:51;4.23;;;1.80;;
36593;SDS011;22603;47.900;8.146;2023-02-12T02:05:43;5.17;;;1.97;;
36593;SDS011;22603;47.900;8.146;2023-02-12T02:08:35;7.13;;;2.00;;
36593;SDS011;22603;47.900;8.146;2023-02-12T02:11:23;6.40;;;1.90;;
36593;SDS011;22603;47.900;8.146;2023-02-12T02:14:27;3.60;;;1.67;;
36593;SDS011;22603;47.900;8.146;2023-02-12T02:17:34;11.60;;;4.03;;
36593;SDS011;22603;47.900;8.146;2023-02-12T02:20:45;10.77;;;3.37;;
36593;SDS011;22603;47.900;8.146;2023-02-12T02:27:14;4.97;;;2.13;;
36593;SDS011;22603;47.900;8.146;2023-02-12T02:30:13;8.07;;;3.13;;
36593;SDS011;22603;47.900;8.146;2023-02-12T02:33:17;6.77;;;2.20;;
36593;SDS011;22603;47.900;8.146;2023-02-12T02:36:13;5.23;;;2.03;;
36593;SDS011;22603;47.900;8.146;2023-02-12T02:39:05;3.60;;;1.40;;
36593;SDS011;22603;47.900;8.146;2023-02-12T02:41:59;3.50;;;1.67;;
36593;SDS011;22603;47.900;8.146;2023-02-12T02:44:54;5.63;;;1.93;;
36593;SDS011;22603;47.900;8.146;2023-02-12T02:47:58;5.70;;;2.70;;
36593;SDS011;22603;47.900;8.146;2023-02-12T02:50:51;10.87;;;2.53;;
36593;SDS011;22603;47.900;8.146;2023-02-12T02:53:42;5.93;;;2.53;;
36593;SDS011;22603;47.900;8.146;2023-02-12T02:56:32;5.50;;;2.33;;
36593;SDS011;22603;47.900;8.146;2023-02-12T02:59:23;3.97;;;1.83;;
36593;SDS011;22603;47.900;8.146;2023-02-12T03:02:17;4.33;;;1.87;;
36593;SDS011;22603;47.900;8.146;2023-02-12T03:05:09;9.93;;;2.73;;
36593;SDS011;22603;47.900;8.146;2023-02-12T03:08:02;5.33;;;1.40;;
36593;SDS011;22603;47.900;8.146;2023-02-12T03:10:53;5.53;;;2.00;;
36593;SDS011;22603;47.900;8.146;2023-02-12T03:13:44;9.73;;;2.63;;
36593;SDS011;22603;47.900;8.146;2023-02-12T03:16:37;10.87;;;2.40;;
36593;SDS011;22603;47.900;8.146;2023-02-12T03:19:28;4.83;;;2.00;;
36593;SDS011;22603;47.900;8.146;2023-02-12T03:22:20;5.27;;;2.13;;
36593;SDS011;22603;47.900;8.146;2023-02-12T03:25:11;5.17;;;1.80;;
36593;SDS011;22603;47.900;8.146;2023-02-12T03:28:01;6.53;;;2.07;;
36593;SDS011;22603;47.900;8.146;2023-02-12T03:30:53;5.33;;;1.70;;
36593;SDS011;22603;47.900;8.146;2023-02-12T03:33:47;8.43;;;2.17;;
36593;SDS011;22603;47.900;8.146;2023-02-12T03:36:46;6.33;;;2.33;;
36593;SDS011;22603;47.900;8.146;2023-02-12T03:39:41;4.53;;;1.93;;
36593;SDS011;22603;47.900;8.146;2023-02-12T03:42:36;3.97;;;1.80;;
36593;SDS011;22603;47.900;8.146;2023-02-12T03:45:34;5.00;;;1.97;;
36593;SDS011;22603;47.900;8.146;2023-02-12T03:48:26;5.23;;;1.70;;
36593;SDS011;22603;47.900;8.146;2023-02-12T03:51:19;4.00;;;1.50;;
36593;SDS011;22603;47.900;8.146;2023-02-12T03:54:11;8.47;;;2.47;;
36593;SDS011;22603;47.900;8.146;2023-02-12T03:57:04;8.40;;;2.43;;
36593;SDS011;22603;47.900;8.146;2023-02-12T03:59:55;7.30;;;2.27;;
36593;SDS011;22603;47.900;8.146;2023-02-12T04:02:43;10.33;;;3.43;;
36593;SDS011;22603;47.900;8.146;2023-02-12T04:05:31;7.17;;;3.20;;
36593;SDS011;22603;47.900;8.146;2023-02-12T04:08:17;6.63;;;2.70;;
36593;SDS011;22603;47.900;8.146;2023-02-12T04:11:06;9.97;;;3.07;;
36593;SDS011;22603;47.900;8.146;2023-02-12T04:14:12;6.27;;;2.50;;
36593;SDS011;22603;47.900;8.146;2023-02-12T04:17:04;6.40;;;2.57;;
36593;SDS011;22603;47.900;8.146;2023-02-12T04:19:58;9.70;;;3.03;;
36593;SDS011;22603;47.900;8.146;2023-02-12T04:22:54;11.77;;;3.97;;
36593;SDS011;22603;47.900;8.146;2023-02-12T04:25:55;11.33;;;3.87;;
36593;SDS011;22603;47.900;8.146;2023-02-12T04:28:55;9.50;;;3.63;;
36593;SDS011;22603;47.900;8.146;2023-02-12T04:31:49;9.33;;;3.97;;
36593;SDS011;22603;47.900;8.146;2023-02-12T04:34:42;8.67;;;3.50;;
36593;SDS011;22603;47.900;8.146;2023-02-12T04:37:36;9.83;;;3.87;;
36593;SDS011;22603;47.900;8.146;2023-02-12T04:40:27;13.40;;;4.20;;
36593;SDS011;22603;47.900;8.146;2023-02-12T04:43:24;15.27;;;4.07;;
36593;SDS011;22603;47.900;8.146;2023-02-12T04:46:12;12.50;;;3.47;;
36593;SDS011;22603;47.900;8.146;2023-02-12T04:49:00;10.90;;;3.80;;
36593;SDS011;22603;47.900;8.146;2023-02-12T04:51:48;14.83;;;4.40;;
36593;SDS011;22603;47.900;8.146;2023-02-12T04:54:35;9.90;;;3.50;;
36593;SDS011;22603;47.900;8.146;2023-02-12T04:57:23;10.80;;;3.73;;
36593;SDS011;22603;47.900;8.146;2023-02-12T05:00:11;9.10;;;3.40;;
36593;SDS011;22603;47.900;8.146;2023-02-12T05:02:59;11.30;;;4.03;;
36593;SDS011;22603;47.900;8.146;2023-02-12T05:05:48;11.60;;;3.57;;
36593;SDS011;22603;47.900;8.146;2023-02-12T05:08:35;9.60;;;3.27;;
36593;SDS011;22603;47.900;8.146;2023-02-12T05:11:21;4.67;;;2.00;;
36593;SDS011;22603;47.900;8.146;2023-02-12T05:14:08;5.63;;;2.40;;
36593;SDS011;22603;47.900;8.146;2023-02-12T05:16:56;10.40;;;3.37;;
36593;SDS011;22603;47.900;8.146;2023-02-12T05:19:43;11.43;;;2.40;;
36593;SDS011;22603;47.900;8.146;2023-02-12T05:22:31;8.57;;;2.90;;
36593;SDS011;22603;47.900;8.146;2023-02-12T05:25:18;11.30;;;3.27;;
36593;SDS011;22603;47.900;8.146;2023-02-12T05:28:04;23.50;;;3.90;;
36593;SDS011;22603;47.900;8.146;2023-02-12T05:30:51;7.13;;;2.90;;
36593;SDS011;22603;47.900;8.146;2023-02-12T05:33:40;8.13;;;2.47;;
36593;SDS011;22603;47.900;8.146;2023-02-12T05:36:27;10.00;;;2.90;;
36593;SDS011;22603;47.900;8.146;2023-02-12T05:39:16;8.37;;;3.10;;
36593;SDS011;22603;47.900;8.146;2023-02-12T05:42:03;10.60;;;2.80;;
36593;SDS011;22603;47.900;8.146;2023-02-12T05:44:50;8.07;;;2.90;;
36593;SDS011;22603;47.900;8.146;2023-02-12T05:47:36;12.17;;;2.70;;
36593;SDS011;22603;47.900;8.146;2023-02-12T05:50:23;13.37;;;3.67;;
36593;SDS011;22603;47.900;8.146;2023-02-12T05:53:10;11.20;;;4.13;;
36593;SDS011;22603;47.900;8.146;2023-02-12T05:56:09;12.30;;;3.30;;
36593;SDS011;22603;47.900;8.146;2023-02-12T05:58:59;10.83;;;2.93;;
36593;SDS011;22603;47.900;8.146;2023-02-12T06:01:48;8.30;;;3.20;;
36593;SDS011;22603;47.900;8.146;2023-02-12T06:04:36;10.20;;;3.63;;
36593;SDS011;22603;47.900;8.146;2023-02-12T06:07:23;12.50;;;3.33;;
36593;SDS011;22603;47.900;8.146;2023-02-12T06:10:10;13.70;;;3.93;;
36593;SDS011;22603;47.900;8.146;2023-02-12T06:12:58;12.27;;;3.87;;
36593;SDS011;22603;47.900;8.146;2023-02-12T06:15:45;10.83;;;3.50;;
36593;SDS011;22603;47.900;8.146;2023-02-12T06:18:33;8.70;;;3.40;;
36593;SDS011;22603;47.900;8.146;2023-02-12T06:21:21;15.50;;;3.87;;
36593;SDS011;22603;47.900;8.146;2023-02-12T06:24:10;10.90;;;3.53;;
36593;SDS011;22603;47.900;8.146;2023-02-12T06:26:59;13.40;;;4.03;;
36593;SDS011;22603;47.900;8.146;2023-02-12T06:29:47;9.60;;;3.23;;
36593;SDS011;22603;47.900;8.146;2023-02-12T06:32:34;10.43;;;3.63;;
36593;SDS011;22603;47.900;8.146;2023-02-12T06:35:20;11.43;;;2.90;;
36593;SDS011;22603;47.900;8.146;2023-02-12T06:38:07;15.97;;;4.00;;
36593;SDS011;22603;47.900;8.146;2023-02-12T06:40:54;14.27;;;3.87;;
36593;SDS011;22603;47.900;8.146;2023-02-12T06:43:40;11.53;;;3.83;;
36593;SDS011;22603;47.900;8.146;2023-02-12T06:46:29;14.50;;;4.23;;
36593;SDS011;22603;47.900;8.146;2023-02-12T06:49:16;9.57;;;2.60;;
36593;SDS011;22603;47.900;8.146;2023-02-12T06:52:03;9.50;;;3.37;;
36593;SDS011;22603;47.900;8.146;2023-02-12T06:54:50;8.77;;;3.67;;
36593;SDS011;22603;47.900;8.146;2023-02-12T06:57:36;13.43;;;4.20;;
36593;SDS011;22603;47.900;8.146;2023-02-12T07:00:23;11.50;;;3.93;;
36593;SDS011;22603;47.900;8.146;2023-02-12T07:03:11;15.83;;;3.87;;
36593;SDS011;22603;47.900;8.146;2023-02-12T07:05:58;11.07;;;3.37;;
36593;SDS011;22603;47.900;8.146;2023-02-12T07:08:45;8.27;;;3.37;;
36593;SDS011;22603;47.900;8.146;2023-02-12T07:11:32;10.27;;;3.57;;
36593;SDS011;22603;47.900;8.146;2023-02-12T07:14:22;11.50;;;3.53;;
36593;SDS011;22603;47.900;8.146;2023-02-12T07:17:10;10.20;;;2.93;;
36593;SDS011;22603;47.900;8.146;2023-02-12T07:19:58;11.20;;;3.57;;
36593;SDS011;22603;47.900;8.146;2023-02-12T07:22:45;10.37;;;3.60;;
36593;SDS011;22603;47.900;8.146;2023-02-12T07:25:32;11.60;;;2.97;;
36593;SDS011;22603;47.900;8.146;2023-02-12T07:28:19;7.83;;;3.33;;
36593;SDS011;22603;47.900;8.146;2023-02-12T07:31:06;10.03;;;3.40;;
36593;SDS011;22603;47.900;8.146;2023-02-12T07:33:56;14.70;;;4.70;;
36593;SDS011;22603;47.900;8.146;2023-02-12T07:36:45;8.80;;;3.27;;
36593;SDS011;22603;47.900;8.146;2023-02-12T07:39:32;8.17;;;3.20;;
36593;SDS011;22603;47.900;8.146;2023-02-12T07:42:18;7.97;;;2.67;;
36593;SDS011;22603;47.900;8.146;2023-02-12T07:45:06;8.87;;;3.40;;
36593;SDS011;22603;47.900;8.146;2023-02-12T07:47:53;11.60;;;3.40;;
36593;SDS011;22603;47.900;8.146;2023-02-12T07:50:39;10.10;;;3.57;;
36593;SDS011;22603;47.900;8.146;2023-02-12T07:53:28;10.07;;;3.30;;
36593;SDS011;22603;47.900;8.146;2023-02-12T07:56:15;11.90;;;2.90;;
36593;SDS011;22603;47.900;8.146;2023-02-12T07:59:04;8.77;;;3.00;;
36593;SDS011;22603;47.900;8.146;2023-02-12T08:01:53;11.50;;;3.60;;
36593;SDS011;22603;47.900;8.146;2023-02-12T08:04:41;10.87;;;2.87;;
36593;SDS011;22603;47.900;8.146;2023-02-12T08:07:28;10.67;;;4.33;;
36593;SDS011;22603;47.900;8.146;2023-02-12T08:10:16;10.37;;;3.57;;
36593;SDS011;22603;47.900;8.146;2023-02-12T08:13:06;8.37;;;3.07;;
36593;SDS011;22603;47.900;8.146;2023-02-12T08:15:58;9.77;;;3.23;;
36593;SDS011;22603;47.900;8.146;2023-02-12T08:18:45;11.33;;;3.30;;
36593;SDS011;22603;47.900;8.146;2023-02-12T08:21:32;11.33;;;3.50;;
36593;SDS011;22603;47.900;8.146;2023-02-12T08:24:20;13.37;;;4.00;;
36593;SDS011;22603;47.900;8.146;2023-02-12T08:27:08;10.60;;;4.10;;
36593;SDS011;22603;47.900;8.146;2023-02-12T08:29:55;11.37;;;4.10;;
36593;SDS011;22603;47.900;8.146;2023-02-12T08:32:42;16.37;;;4.13;;
36593;SDS011;22603;47.900;8.146;2023-02-12T08:35:31;10.23;;;3.40;;
36593;SDS011;22603;47.900;8.146;2023-02-12T08:38:18;18.27;;;4.10;;
36593;SDS011;22603;47.900;8.146;2023-02-12T08:41:06;11.30;;;4.07;;
36593;SDS011;22603;47.900;8.146;2023-02-12T08:43:56;10.60;;;3.93;;
36593;SDS011;22603;47.900;8.146;2023-02-12T08:46:45;13.00;;;3.37;;
36593;SDS011;22603;47.900;8.146;2023-02-12T08:49:34;10.17;;;4.03;;
36593;SDS011;22603;47.900;8.146;2023-02-12T08:52:21;11.53;;;3.67;;
36593;SDS011;22603;47.900;8.146;2023-02-12T08:55:08;11.27;;;3.00;;
36593;SDS011;22603;47.900;8.146;2023-02-12T08:57:55;12.57;;;3.97;;
36593;SDS011;22603;47.900;8.146;2023-02-12T09:00:43;9.33;;;3.17;;
36593;SDS011;22603;47.900;8.146;2023-02-12T09:03:30;10.07;;;3.23;;
36593;SDS011;22603;47.900;8.146;2023-02-12T09:06:18;15.73;;;4.60;;
36593;SDS011;22603;47.900;8.146;2023-02-12T09:09:06;8.70;;;3.03;;
36593;SDS011;22603;47.900;8.146;2023-02-12T09:11:53;13.60;;;3.70;;
36593;SDS011;22603;47.900;8.146;2023-02-12T09:14:40;13.20;;;4.13;;
36593;SDS011;22603;47.900;8.146;2023-02-12T09:17:29;11.53;;;3.60;;
36593;SDS011;22603;47.900;8.146;2023-02-12T09:20:15;9.20;;;2.90;;
36593;SDS011;22603;47.900;8.146;2023-02-12T09:23:02;11.10;;;3.37;;
36593;SDS011;22603;47.900;8.146;2023-02-12T09:25:49;10.47;;;3.30;;
36593;SDS011;22603;47.900;8.146;2023-02-12T09:28:36;16.50;;;4.00;;
36593;SDS011;22603;47.900;8.146;2023-02-12T09:31:24;13.57;;;4.53;;
36593;SDS011;22603;47.900;8.146;2023-02-12T09:34:14;14.57;;;3.73;;
36593;SDS011;22603;47.900;8.146;2023-02-12T09:37:01;12.43;;;3.57;;
36593;SDS011;22603;47.900;8.146;2023-02-12T09:39:48;13.23;;;4.10;;
36593;SDS011;22603;47.900;8.146;2023-02-12T09:42:40;10.20;;;3.77;;
36593;SDS011;22603;47.900;8.146;2023-02-12T09:45:43;9.40;;;3.53;;
36593;SDS011;22603;47.900;8.146;2023-02-12T09:48:41;12.87;;;4.37;;
36593;SDS011;22603;47.900;8.146;2023-02-12T09:51:41;11.80;;;3.80;;
36593;SDS011;22603;47.900;8.146;2023-02-12T09:54:36;10.27;;;3.73;;
36593;SDS011;22603;47.900;8.146;2023-02-12T09:57:25;10.93;;;3.93;;
36593;SDS011;22603;47.900;8.146;2023-02-12T10:00:17;9.77;;;3.43;;
36593;SDS011;22603;47.900;8.146;2023-02-12T10:03:10;10.23;;;3.93;;
36593;SDS011;22603;47.900;8.146;2023-02-12T10:06:00;10.87;;;3.80;;
36593;SDS011;22603;47.900;8.146;2023-02-12T10:12:02;10.07;;;3.67;;
36593;SDS011;22603;47.900;8.146;2023-02-12T10:15:08;9.90;;;3.40;;
36593;SDS011;22603;47.900;8.146;2023-02-12T10:18:06;10.67;;;3.50;;
36593;SDS011;22603;47.900;8.146;2023-02-12T10:21:15;9.83;;;3.60;;
36593;SDS011;22603;47.900;8.146;2023-02-12T10:24:37;12.37;;;4.20;;
36593;SDS011;22603;47.900;8.146;2023-02-12T10:27:44;10.40;;;3.30;;
36593;SDS011;22603;47.900;8.146;2023-02-12T10:30:36;10.20;;;3.30;;
36593;SDS011;22603;47.900;8.146;2023-02-12T10:33:29;11.63;;;3.40;;
36593;SDS011;22603;47.900;8.146;2023-02-12T10:36:26;8.77;;;3.67;;
36593;SDS011;22603;47.900;8.146;2023-02-12T10:39:23;9.43;;;3.10;;
36593;SDS011;22603;47.900;8.146;2023-02-12T10:42:13;8.17;;;2.90;;
36593;SDS011;22603;47.900;8.146;2023-02-12T10:45:04;8.30;;;2.93;;
36593;SDS011;22603;47.900;8.146;2023-02-12T10:48:07;7.90;;;2.50;;
36593;SDS011;22603;47.900;8.146;2023-02-12T10:57:23;8.37;;;2.60;;
36593;SDS011;22603;47.900;8.146;2023-02-12T11:00:13;9.93;;;3.07;;
36593;SDS011;22603;47.900;8.146;2023-02-12T11:03:18;8.07;;;2.90;;
36593;SDS011;22603;47.900;8.146;2023-02-12T11:06:13;8.17;;;2.87;;
36593;SDS011;22603;47.900;8.146;2023-02-12T11:09:01;7.87;;;2.40;;
36593;SDS011;22603;47.900;8.146;2023-02-12T11:11:48;9.93;;;3.17;;
36593;SDS011;22603;47.900;8.146;2023-02-12T11:14:36;8.70;;;2.90;;
36593;SDS011;22603;47.900;8.146;2023-02-12T11:17:24;9.13;;;2.87;;
36593;SDS011;22603;47.900;8.146;2023-02-12T11:20:22;5.93;;;2.33;;
36593;SDS011;22603;47.900;8.146;2023-02-12T11:23:21;5.00;;;2.10;;
36593;SDS011;22603;47.900;8.146;2023-02-12T11:26:21;6.93;;;2.13;;
36593;SDS011;22603;47.900;8.146;2023-02-12T11:29:16;4.33;;;1.77;;
36593;SDS011;22603;47.900;8.146;2023-02-12T11:32:06;6.87;;;2.33;;
36593;SDS011;22603;47.900;8.146;2023-02-12T11:35:03;8.57;;;2.87;;
36593;SDS011;22603;47.900;8.146;2023-02-12T11:37:52;6.27;;;2.20;;
36593;SDS011;22603;47.900;8.146;2023-02-12T11:40:44;6.03;;;2.50;;
36593;SDS011;22603;47.900;8.146;2023-02-12T11:43:33;5.97;;;2.17;;
36593;SDS011;22603;47.900;8.146;2023-02-12T11:46:24;7.20;;;2.33;;
36593;SDS011;22603;47.900;8.146;2023-02-12T11:49:14;4.95;;;1.90;;
36593;SDS011;22603;47.900;8.146;2023-02-12T11:52:06;6.88;;;2.58;;
36593;SDS011;22603;47.900;8.146;2023-02-12T11:55:06;6.70;;;2.33;;
36593;SDS011;22603;47.900;8.146;2023-02-12T11:58:04;7.65;;;2.67;;
36593;SDS011;22603;47.900;8.146;2023-02-12T12:01:05;8.10;;;2.72;;
36593;SDS011;22603;47.900;8.146;2023-02-12T12:03:58;6.55;;;2.20;;
36593;SDS011;22603;47.900;8.146;2023-02-12T12:06:52;5.75;;;2.05;;
36593;SDS011;22603;47.900;8.146;2023-02-12T12:09:43;8.30;;;2.38;;
36593;SDS011;22603;47.900;8.146;2023-02-12T12:12:36;6.10;;;1.83;;
36593;SDS011;22603;47.900;8.146;2023-02-12T12:15:27;6.38;;;1.98;;
36593;SDS011;22603;47.900;8.146;2023-02-12T12:18:36;5.53;;;1.70;;
36593;SDS011;22603;47.900;8.146;2023-02-12T12:21:49;8.35;;;2.22;;
36593;SDS011;22603;47.900;8.146;2023-02-12T12:24:46;5.03;;;1.77;;
36593;SDS011;22603;47.900;8.146;2023-02-12T12:27:40;5.05;;;2.17;;
36593;SDS011;22603;47.900;8.146;2023-02-12T12:31:01;5.78;;;2.38;;
36593;SDS011;22603;47.900;8.146;2023-02-12T12:33:55;7.40;;;2.03;;
36593;SDS011;22603;47.900;8.146;2023-02-12T12:37:03;7.05;;;2.00;;
36593;SDS011;22603;47.900;8.146;2023-02-12T12:40:15;7.95;;;2.13;;
36593;SDS011;22603;47.900;8.146;2023-02-12T12:43:13;5.20;;;1.83;;
36593;SDS011;22603;47.900;8.146;2023-02-12T12:49:34;4.90;;;1.80;;
36593;SDS011;22603;47.900;8.146;2023-02-12T12:52:44;5.00;;;1.60;;
36593;SDS011;22603;47.900;8.146;2023-02-12T12:56:08;5.27;;;1.90;;
36593;SDS011;22603;47.900;8.146;2023-02-12T12:59:08;2.87;;;1.30;;
36593;SDS011;22603;47.900;8.146;2023-02-12T13:02:17;5.63;;;2.00;;
36593;SDS011;22603;47.900;8.146;2023-02-12T13:05:43;5.23;;;1.50;;
36593;SDS011;22603;47.900;8.146;2023-02-12T13:09:09;4.90;;;2.00;;
36593;SDS011;22603;47.900;8.146;2023-02-12T13:15:25;3.77;;;1.50;;
36593;SDS011;22603;47.900;8.146;2023-02-12T13:18:21;6.33;;;1.80;;
36593;SDS011;22603;47.900;8.146;2023-02-12T13:21:18;4.53;;;1.50;;
36593;SDS011;22603;47.900;8.146;2023-02-12T13:24:20;6.07;;;1.50;;
36593;SDS011;22603;47.900;8.146;2023-02-12T13:27:15;5.23;;;1.47;;
36593;SDS011;22603;47.900;8.146;2023-02-12T13:30:15;4.07;;;1.67;;
36593;SDS011;22603;47.900;8.146;2023-02-12T13:33:06;4.83;;;1.70;;
36593;SDS011;22603;47.900;8.146;2023-02-12T13:35:57;5.57;;;1.50;;
36593;SDS011;22603;47.900;8.146;2023-02-12T13:38:48;3.87;;;1.63;;
36593;SDS011;22603;47.900;8.146;2023-02-12T13:41:45;3.47;;;1.43;;
36593;SDS011;22603;47.900;8.146;2023-02-12T13:44:39;3.30;;;1.17;;
36593;SDS011;22603;47.900;8.146;2023-02-12T13:47:33;3.90;;;1.40;;
36593;SDS011;22603;47.900;8.146;2023-02-12T13:50:31;7.00;;;1.67;;
36593;SDS011;22603;47.900;8.146;2023-02-12T13:53:26;3.83;;;1.47;;
36593;SDS011;22603;47.900;8.146;2023-02-12T13:59:43;5.00;;;1.80;;
36593;SDS011;22603;47.900;8.146;2023-02-12T14:02:41;4.37;;;1.67;;
36593;SDS011;22603;47.900;8.146;2023-02-12T14:05:30;4.57;;;1.73;;
36593;SDS011;22603;47.900;8.146;2023-02-12T14:08:34;4.23;;;1.47;;
36593;SDS011;22603;47.900;8.146;2023-02-12T14:11:23;4.77;;;1.80;;
36593;SDS011;22603;47.900;8.146;2023-02-12T14:14:11;6.27;;;1.73;;
36593;SDS011;22603;47.900;8.146;2023-02-12T14:20:21;4.77;;;1.67;;
36593;SDS011;22603;47.900;8.146;2023-02-12T14:23:20;6.07;;;1.60;;
36593;SDS011;22603;47.900;8.146;2023-02-12T14:26:09;4.57;;;1.80;;
36593;SDS011;22603;47.900;8.146;2023-02-12T14:28:59;6.33;;;1.53;;
36593;SDS011;22603;47.900;8.146;2023-02-12T14:31:49;4.00;;;1.77;;
36593;SDS011;22603;47.900;8.146;2023-02-12T14:34:37;6.57;;;2.30;;
36593;SDS011;22603;47.900;8.146;2023-02-12T14:37:33;6.27;;;2.10;;
36593;SDS011;22603;47.900;8.146;2023-02-12T14:40:41;3.63;;;1.60;;
36593;SDS011;22603;47.900;8.146;2023-02-12T14:43:32;3.33;;;1.50;;
36593;SDS011;22603;47.900;8.146;2023-02-12T14:46:44;5.03;;;1.70;;
36593;SDS011;22603;47.900;8.146;2023-02-12T14:49:33;2.87;;;1.37;;
36593;SDS011;22603;47.900;8.146;2023-02-12T14:52:27;8.70;;;1.60;;
36593;SDS011;22603;47.900;8.146;2023-02-12T14:55:20;3.97;;;1.53;;
36593;SDS011;22603;47.900;8.146;2023-02-12T14:58:14;6.23;;;1.73;;
36593;SDS011;22603;47.900;8.146;2023-02-12T15:01:05;10.57;;;1.90;;
36593;SDS011;22603;47.900;8.146;2023-02-12T15:03:53;7.50;;;2.20;;
36593;SDS011;22603;47.900;8.146;2023-02-12T15:06:47;6.53;;;2.00;;
36593;SDS011;22603;47.900;8.146;2023-02-12T15:09:38;5.93;;;1.90;;
36593;SDS011;22603;47.900;8.146;2023-02-12T15:12:33;9.70;;;2.53;;
36593;SDS011;22603;47.900;8.146;2023-02-12T15:15:26;5.37;;;1.93;;
36593;SDS011;22603;47.900;8.146;2023-02-12T15:18:19;6.30;;;2.60;;
36593;SDS011;22603;47.900;8.146;2023-02-12T15:21:12;8.93;;;2.97;;
36593;SDS011;22603;47.900;8.146;2023-02-12T15:24:05;5.40;;;1.70;;
36593;SDS011;22603;47.900;8.146;2023-02-12T15:26:55;9.97;;;3.27;;
36593;SDS011;22603;47.900;8.146;2023-02-12T15:29:46;9.03;;;2.90;;
36593;SDS011;22603;47.900;8.146;2023-02-12T15:32:36;8.50;;;2.93;;
36593;SDS011;22603;47.900;8.146;2023-02-12T15:35:24;9.63;;;3.73;;
36593;SDS011;22603;47.900;8.146;2023-02-12T15:38:17;9.13;;;3.60;;
36593;SDS011;22603;47.900;8.146;2023-02-12T15:41:08;12.37;;;2.83;;
36593;SDS011;22603;47.900;8.146;2023-02-12T15:44:22;9.10;;;3.37;;
36593;SDS011;22603;47.900;8.146;2023-02-12T15:47:13;9.37;;;3.43;;
36593;SDS011;22603;47.900;8.146;2023-02-12T15:50:01;9.83;;;3.50;;
36593;SDS011;22603;47.900;8.146;2023-02-12T15:52:48;7.63;;;2.97;;
36593;SDS011;22603;47.900;8.146;2023-02-12T15:55:37;8.87;;;3.13;;
36593;SDS011;22603;47.900;8.146;2023-02-12T15:58:28;21.80;;;2.77;;
36593;SDS011;22603;47.900;8.146;2023-02-12T16:01:18;8.80;;;3.37;;
36593;SDS011;22603;47.900;8.146;2023-02-12T16:04:09;7.63;;;3.20;;
36593;SDS011;22603;47.900;8.146;2023-02-12T16:06:57;12.97;;;3.27;;
36593;SDS011;22603;47.900;8.146;2023-02-12T16:09:44;10.47;;;3.57;;
36593;SDS011;22603;47.900;8.146;2023-02-12T16:12:33;7.70;;;3.37;;
36593;SDS011;22603;47.900;8.146;2023-02-12T16:15:23;9.03;;;3.43;;
36593;SDS011;22603;47.900;8.146;2023-02-12T16:18:21;10.90;;;3.73;;
36593;SDS011;22603;47.900;8.146;2023-02-12T16:21:11;11.70;;;3.40;;
36593;SDS011;22603;47.900;8.146;2023-02-12T16:24:00;11.30;;;3.77;;
36593;SDS011;22603;47.900;8.146;2023-02-12T16:26:47;9.33;;;3.30;;
36593;SDS011;22603;47.900;8.146;2023-02-12T16:29:35;11.73;;;3.77;;
36593;SDS011;22603;47.900;8.146;2023-02-12T16:32:31;7.87;;;2.90;;
36593;SDS011;22603;47.900;8.146;2023-02-12T16:35:23;7.17;;;2.27;;
36593;SDS011;22603;47.900;8.146;2023-02-12T16:41:27;7.43;;;2.77;;
36593;SDS011;22603;47.900;8.146;2023-02-12T16:44:25;14.37;;;2.97;;
36593;SDS011;22603;47.900;8.146;2023-02-12T16:47:18;9.37;;;3.30;;
36593;SDS011;22603;47.900;8.146;2023-02-12T16:50:13;9.77;;;3.50;;
36593;SDS011;22603;47.900;8.146;2023-02-12T16:53:02;8.03;;;3.10;;
36593;SDS011;22603;47.900;8.146;2023-02-12T16:55:52;8.57;;;3.17;;
36593;SDS011;22603;47.900;8.146;2023-02-12T16:58:39;8.70;;;3.03;;
36593;SDS011;22603;47.900;8.146;2023-02-12T17:01:28;7.97;;;3.17;;
36593;SDS011;22603;47.900;8.146;2023-02-12T17:04:17;7.00;;;2.60;;
36593;SDS011;22603;47.900;8.146;2023-02-12T17:07:04;10.30;;;3.27;;
36593;SDS011;22603;47.900;8.146;2023-02-12T17:10:01;9.50;;;3.00;;
36593;SDS011;22603;47.900;8.146;2023-02-12T17:12:50;7.40;;;2.97;;
36593;SDS011;22603;47.900;8.146;2023-02-12T17:15:40;9.73;;;3.50;;
36593;SDS011;22603;47.900;8.146;2023-02-12T17:45:27;9.47;;;3.00;;
36593;SDS011;22603;47.900;8.146;2023-02-12T17:48:15;6.00;;;2.50;;
36593;SDS011;22603;47.900;8.146;2023-02-12T17:51:02;7.00;;;2.87;;
36593;SDS011;22603;47.900;8.146;2023-02-12T17:53:50;9.93;;;3.70;;
36593;SDS011;22603;47.900;8.146;2023-02-12T17:56:37;10.50;;;3.43;;
36593;SDS011;22603;47.900;8.146;2023-02-12T17:59:25;7.37;;;2.83;;
36593;SDS011;22603;47.900;8.146;2023-02-12T18:02:16;6.27;;;2.47;;
36593;SDS011;22603;47.900;8.146;2023-02-12T18:05:03;8.23;;;2.87;;
36593;SDS011;22603;47.900;8.146;2023-02-12T18:07:51;8.33;;;3.13;;
36593;SDS011;22603;47.900;8.146;2023-02-12T18:10:38;7.63;;;3.03;;
36593;SDS011;22603;47.900;8.146;2023-02-12T18:13:26;7.63;;;2.90;;